Purdy Station, New York
Current Conditions -  °F | °C
As of 10:53 AM on Friday 28 Nov 2014 (Local Time) from KDXR Reporting Station
Few Clouds Few Clouds  
Wind Chill: 23°   Ceiling: Unl
Heat Index: 32°   Visibility: 10mi
Dew Point: 18°   Wind: 12mph
Humidity: 56%   Direction: 300°WNW
Pressure: 30.15"   Gusts: 17mph
Location:  41.3178°N, 73.6377°W
Report Text: KDXR 281553Z 30010G15KT 10SM FEW028 00/M08 A3015 RMK AO2 SLP212 T00001078
Loading
Personal Weather Stations






























Interactive Weather Map New forecast layout! Learn more

10-Day Weather Forecast

Advertisements
Track Severe Weather on mobile